Impacts TAF Board
For situational awareness. Not to be used for flight planning purposes.
IDs:

KPDT - Pendleton/E Oregon R, OR, US

Issued at 2102 UTC 06 Dec 2019
Updated at 2109 UTC 06 Dec 2019
Potential Impact None Slight Moderate High
Time2053Z 06/22Z 06/23Z 07/00Z 07/01Z 07/02Z 07/03Z 07/04Z 07/05Z 07/06Z 07/07Z 07/08Z 07/09Z 07/10Z>>
Type OBS PRVL
  [TEMP]  
PRVL PRVL PRVL PRVL PRVL PRVL PRVL PRVL PRVL PRVL PRVL PRVL
VIS 0.25 0.25
  [2]  
>6 >6 >6 >6 >6 >6 >6 5 5 5 5 5
CIG 1 1
  [3]  
250 250 250 250 250 250 250 60 60 40 40 40
Cover OVX OVX
  [OVC]  
OVC OVC OVC OVC OVC OVC OVC OVC OVC OVC OVC OVC
FltCat LIFR LIFR
  [LIFR]  
VFR VFR VFR VFR VFR VFR VFR MVFR MVFR MVFR MVFR MVFR
WX FG FZFG
  [BR]  
-- -- -- -- -- -- -- BR BR -RA BR -RA BR -RA BR
WDir 330 330
[330]
VRB VRB VRB VRB VRB VRB VRB VRB VRB 120 120 120
WSpd 7 7
  [7]  
5 5 5 5 5 5 5 4 4 4 4 4
WGst -- --
  [--]  
-- -- -- -- -- -- -- -- -- -- -- --
Raw TAF
KPDT 062102Z 0621/0718 33007KT 1/4SM FZFG VV001
  TEMPO 0621/0623 2SM BR OVC003
  FM062300 VRB05KT P6SM OVC250
  FM070600 VRB04KT 5SM BR SCT002 OVC060
  FM070800 12004KT 5SM -RA BR OVC040
  FM071400 16005KT 3SM BR BKN002 OVC035


Raw METAR
KPDT 062053Z 33007KT M1/4SM R26/0500V0700FT FG VV001 01/00 A2999 RMK AO2 SLP164 I3001 T00060000 58016
KPDT 062005Z 31012KT M1/4SM R26/0500V0800FT FG VV001 01/M01 A3002 RMK AO2 T00061011
KPDT 061953Z 31011KT M1/4SM R26/0800V1200FT FG VV002 01/M01 A3002 RMK AO2 SLP173 T00061006
KPDT 061911Z 30011KT 1/4SM R26/1200V2000FT FG VV002 00/M01 A3002 RMK AO2 T00001006
KPDT 061901Z 31009KT 1/4SM R26/1200V3500FT FG VV002 00/M01 A3002 RMK AO2 T00001011
KPDT 061853Z 31010KT 1/2SM R26/1400V4000FT FG VV001 00/M01 A3002 RMK AO2 SLP175 I1001 T00001011
KPDT 061834Z 34008KT 1/4SM R26/1200V2400FT FG VV001 00/M01 A3002 RMK AO2 PRESFR T00001011

METAR Board
Radar Display
Forecast Discussion
For situational awareness. Not to be used for flight planning purposes.